Aviation Digital Data Service (ADDS)

Output produced by METARs form (2349 UTC 03 December 2016)
found at http://aviationweather.gov/adds/metars/
 
KCKB 032339Z 0400/0424 VRB03KT P6SM OVC030 
     FM040300 00000KT P6SM OVC040 
     FM040700 00000KT P6SM BKN200 
     FM041700 08005KT P6SM BKN150